sensor_id;sensor_type;location;lat;lon;timestamp;P1;durP1;ratioP1;P2;durP2;ratioP2
59093;SDS011;44880;52.814;18.270;2023-08-06T00:02:12;9.70;;;4.30;;
59093;SDS011;44880;52.814;18.270;2023-08-06T00:04:44;11.30;;;4.90;;
59093;SDS011;44880;52.814;18.270;2023-08-06T00:07:16;9.40;;;4.80;;
59093;SDS011;44880;52.814;18.270;2023-08-06T00:09:47;10.10;;;4.80;;
59093;SDS011;44880;52.814;18.270;2023-08-06T00:12:19;9.80;;;4.60;;
59093;SDS011;44880;52.814;18.270;2023-08-06T00:14:51;10.20;;;5.10;;
59093;SDS011;44880;52.814;18.270;2023-08-06T00:17:23;10.00;;;5.20;;
59093;SDS011;44880;52.814;18.270;2023-08-06T00:19:56;10.60;;;4.90;;
59093;SDS011;44880;52.814;18.270;2023-08-06T00:22:33;11.00;;;5.40;;
59093;SDS011;44880;52.814;18.270;2023-08-06T00:25:06;9.90;;;5.40;;
59093;SDS011;44880;52.814;18.270;2023-08-06T00:27:38;9.80;;;4.90;;
59093;SDS011;44880;52.814;18.270;2023-08-06T00:30:10;11.20;;;5.00;;
59093;SDS011;44880;52.814;18.270;2023-08-06T00:32:42;10.50;;;5.20;;
59093;SDS011;44880;52.814;18.270;2023-08-06T00:35:14;10.20;;;4.90;;
59093;SDS011;44880;52.814;18.270;2023-08-06T00:37:46;11.20;;;5.40;;
59093;SDS011;44880;52.814;18.270;2023-08-06T00:40:17;10.50;;;5.50;;
59093;SDS011;44880;52.814;18.270;2023-08-06T00:42:52;10.10;;;5.40;;
59093;SDS011;44880;52.814;18.270;2023-08-06T00:45:24;10.00;;;5.30;;
59093;SDS011;44880;52.814;18.270;2023-08-06T00:47:59;9.80;;;5.50;;
59093;SDS011;44880;52.814;18.270;2023-08-06T00:50:31;10.20;;;5.50;;
59093;SDS011;44880;52.814;18.270;2023-08-06T00:53:03;10.60;;;5.70;;
59093;SDS011;44880;52.814;18.270;2023-08-06T00:55:35;11.60;;;5.50;;
59093;SDS011;44880;52.814;18.270;2023-08-06T00:58:07;10.50;;;5.40;;
59093;SDS011;44880;52.814;18.270;2023-08-06T01:00:38;11.60;;;6.10;;
59093;SDS011;44880;52.814;18.270;2023-08-06T01:03:10;11.10;;;5.70;;
59093;SDS011;44880;52.814;18.270;2023-08-06T01:05:42;10.90;;;6.00;;
59093;SDS011;44880;52.814;18.270;2023-08-06T01:10:51;10.30;;;5.40;;
59093;SDS011;44880;52.814;18.270;2023-08-06T01:13:31;9.40;;;5.80;;
59093;SDS011;44880;52.814;18.270;2023-08-06T01:16:06;9.80;;;5.10;;
59093;SDS011;44880;52.814;18.270;2023-08-06T01:18:39;10.90;;;5.20;;
59093;SDS011;44880;52.814;18.270;2023-08-06T01:21:14;9.70;;;5.10;;
59093;SDS011;44880;52.814;18.270;2023-08-06T01:26:18;9.20;;;4.90;;
59093;SDS011;44880;52.814;18.270;2023-08-06T01:28:55;10.70;;;5.10;;
59093;SDS011;44880;52.814;18.270;2023-08-06T01:31:30;8.90;;;4.90;;
59093;SDS011;44880;52.814;18.270;2023-08-06T01:34:02;12.00;;;5.00;;
59093;SDS011;44880;52.814;18.270;2023-08-06T01:36:34;9.30;;;4.70;;
59093;SDS011;44880;52.814;18.270;2023-08-06T01:39:07;8.90;;;4.60;;
59093;SDS011;44880;52.814;18.270;2023-08-06T01:41:38;9.60;;;4.80;;
59093;SDS011;44880;52.814;18.270;2023-08-06T01:44:11;9.00;;;4.70;;
59093;SDS011;44880;52.814;18.270;2023-08-06T01:46:43;9.00;;;4.10;;
59093;SDS011;44880;52.814;18.270;2023-08-06T01:49:14;10.10;;;4.60;;
59093;SDS011;44880;52.814;18.270;2023-08-06T01:51:46;8.70;;;4.30;;
59093;SDS011;44880;52.814;18.270;2023-08-06T01:54:18;8.40;;;4.40;;
59093;SDS011;44880;52.814;18.270;2023-08-06T01:56:51;8.40;;;4.40;;
59093;SDS011;44880;52.814;18.270;2023-08-06T01:59:22;8.60;;;4.10;;
59093;SDS011;44880;52.814;18.270;2023-08-06T02:01:54;10.00;;;4.30;;
59093;SDS011;44880;52.814;18.270;2023-08-06T02:04:27;9.30;;;4.40;;
59093;SDS011;44880;52.814;18.270;2023-08-06T02:06:59;8.00;;;4.10;;
59093;SDS011;44880;52.814;18.270;2023-08-06T02:09:31;9.40;;;4.50;;
59093;SDS011;44880;52.814;18.270;2023-08-06T02:12:04;9.60;;;4.50;;
59093;SDS011;44880;52.814;18.270;2023-08-06T02:14:37;8.90;;;4.60;;
59093;SDS011;44880;52.814;18.270;2023-08-06T02:17:08;10.80;;;4.70;;
59093;SDS011;44880;52.814;18.270;2023-08-06T02:19:40;8.80;;;5.20;;
59093;SDS011;44880;52.814;18.270;2023-08-06T02:24:44;9.80;;;5.70;;
59093;SDS011;44880;52.814;18.270;2023-08-06T02:27:15;9.40;;;4.80;;
59093;SDS011;44880;52.814;18.270;2023-08-06T02:29:47;9.70;;;4.80;;
59093;SDS011;44880;52.814;18.270;2023-08-06T02:32:19;9.90;;;4.50;;
59093;SDS011;44880;52.814;18.270;2023-08-06T02:34:51;12.10;;;4.70;;
59093;SDS011;44880;52.814;18.270;2023-08-06T02:37:22;11.00;;;6.20;;
59093;SDS011;44880;52.814;18.270;2023-08-06T02:39:54;9.00;;;4.60;;
59093;SDS011;44880;52.814;18.270;2023-08-06T02:42:26;9.40;;;4.70;;
59093;SDS011;44880;52.814;18.270;2023-08-06T02:47:28;8.90;;;4.60;;
59093;SDS011;44880;52.814;18.270;2023-08-06T02:50:00;10.50;;;4.40;;
59093;SDS011;44880;52.814;18.270;2023-08-06T02:52:32;9.80;;;4.60;;
59093;SDS011;44880;52.814;18.270;2023-08-06T02:55:04;11.00;;;6.00;;
59093;SDS011;44880;52.814;18.270;2023-08-06T02:57:38;9.10;;;4.60;;
59093;SDS011;44880;52.814;18.270;2023-08-06T03:00:11;10.30;;;4.50;;
59093;SDS011;44880;52.814;18.270;2023-08-06T03:02:43;10.20;;;4.60;;
59093;SDS011;44880;52.814;18.270;2023-08-06T03:05:52;8.80;;;4.50;;
59093;SDS011;44880;52.814;18.270;2023-08-06T03:08:34;10.40;;;4.80;;
59093;SDS011;44880;52.814;18.270;2023-08-06T03:11:06;9.70;;;4.40;;
59093;SDS011;44880;52.814;18.270;2023-08-06T03:13:38;8.60;;;4.40;;
59093;SDS011;44880;52.814;18.270;2023-08-06T03:18:40;8.90;;;4.80;;
59093;SDS011;44880;52.814;18.270;2023-08-06T03:21:13;9.40;;;4.30;;
59093;SDS011;44880;52.814;18.270;2023-08-06T03:23:48;10.50;;;4.50;;
59093;SDS011;44880;52.814;18.270;2023-08-06T03:26:21;9.60;;;4.30;;
59093;SDS011;44880;52.814;18.270;2023-08-06T03:28:53;8.80;;;4.60;;
59093;SDS011;44880;52.814;18.270;2023-08-06T03:31:25;8.50;;;4.20;;
59093;SDS011;44880;52.814;18.270;2023-08-06T03:33:57;8.10;;;4.00;;
59093;SDS011;44880;52.814;18.270;2023-08-06T03:36:29;9.40;;;4.30;;
59093;SDS011;44880;52.814;18.270;2023-08-06T03:39:02;10.00;;;3.90;;
59093;SDS011;44880;52.814;18.270;2023-08-06T03:41:34;8.20;;;3.60;;
59093;SDS011;44880;52.814;18.270;2023-08-06T03:44:06;8.50;;;3.30;;
59093;SDS011;44880;52.814;18.270;2023-08-06T03:49:08;7.90;;;3.40;;
59093;SDS011;44880;52.814;18.270;2023-08-06T03:51:40;6.90;;;3.10;;
59093;SDS011;44880;52.814;18.270;2023-08-06T03:54:12;6.80;;;2.80;;
59093;SDS011;44880;52.814;18.270;2023-08-06T03:56:44;7.60;;;2.70;;
59093;SDS011;44880;52.814;18.270;2023-08-06T03:59:18;7.30;;;2.90;;
59093;SDS011;44880;52.814;18.270;2023-08-06T04:01:51;6.50;;;2.70;;
59093;SDS011;44880;52.814;18.270;2023-08-06T04:04:24;7.10;;;3.00;;
59093;SDS011;44880;52.814;18.270;2023-08-06T04:06:56;6.60;;;2.60;;
59093;SDS011;44880;52.814;18.270;2023-08-06T04:09:28;8.00;;;2.50;;
59093;SDS011;44880;52.814;18.270;2023-08-06T04:12:00;7.10;;;2.40;;
59093;SDS011;44880;52.814;18.270;2023-08-06T04:14:33;7.00;;;2.70;;
59093;SDS011;44880;52.814;18.270;2023-08-06T04:17:05;6.30;;;2.20;;
59093;SDS011;44880;52.814;18.270;2023-08-06T04:22:06;6.20;;;2.20;;
59093;SDS011;44880;52.814;18.270;2023-08-06T04:24:38;5.80;;;2.20;;
59093;SDS011;44880;52.814;18.270;2023-08-06T04:27:11;7.00;;;2.20;;
59093;SDS011;44880;52.814;18.270;2023-08-06T04:29:44;7.60;;;2.20;;
59093;SDS011;44880;52.814;18.270;2023-08-06T04:32:16;5.80;;;2.00;;
59093;SDS011;44880;52.814;18.270;2023-08-06T04:34:50;6.00;;;2.40;;
59093;SDS011;44880;52.814;18.270;2023-08-06T04:37:23;8.30;;;2.50;;
59093;SDS011;44880;52.814;18.270;2023-08-06T04:39:56;6.30;;;2.40;;
59093;SDS011;44880;52.814;18.270;2023-08-06T04:42:27;6.70;;;2.60;;
59093;SDS011;44880;52.814;18.270;2023-08-06T04:45:00;6.30;;;2.40;;
59093;SDS011;44880;52.814;18.270;2023-08-06T04:47:32;6.60;;;2.70;;
59093;SDS011;44880;52.814;18.270;2023-08-06T04:50:05;7.30;;;2.40;;
59093;SDS011;44880;52.814;18.270;2023-08-06T04:52:38;7.10;;;2.90;;
59093;SDS011;44880;52.814;18.270;2023-08-06T04:55:09;7.80;;;2.70;;
59093;SDS011;44880;52.814;18.270;2023-08-06T04:57:41;6.40;;;2.50;;
59093;SDS011;44880;52.814;18.270;2023-08-06T05:00:14;6.50;;;2.70;;
59093;SDS011;44880;52.814;18.270;2023-08-06T05:02:46;6.80;;;3.00;;
59093;SDS011;44880;52.814;18.270;2023-08-06T05:05:18;8.30;;;2.90;;
59093;SDS011;44880;52.814;18.270;2023-08-06T05:07:50;9.00;;;2.90;;
59093;SDS011;44880;52.814;18.270;2023-08-06T05:10:23;8.00;;;3.60;;
59093;SDS011;44880;52.814;18.270;2023-08-06T05:12:55;7.70;;;3.20;;
59093;SDS011;44880;52.814;18.270;2023-08-06T05:17:57;9.10;;;3.40;;
59093;SDS011;44880;52.814;18.270;2023-08-06T05:20:29;7.30;;;3.50;;
59093;SDS011;44880;52.814;18.270;2023-08-06T05:23:01;8.10;;;3.40;;
59093;SDS011;44880;52.814;18.270;2023-08-06T05:25:35;8.60;;;3.20;;
59093;SDS011;44880;52.814;18.270;2023-08-06T05:28:07;7.70;;;3.30;;
59093;SDS011;44880;52.814;18.270;2023-08-06T05:30:40;8.60;;;3.40;;
59093;SDS011;44880;52.814;18.270;2023-08-06T05:33:12;8.00;;;3.30;;
59093;SDS011;44880;52.814;18.270;2023-08-06T05:35:45;7.10;;;3.20;;
59093;SDS011;44880;52.814;18.270;2023-08-06T05:38:16;7.20;;;3.00;;
59093;SDS011;44880;52.814;18.270;2023-08-06T05:40:48;8.60;;;3.30;;
59093;SDS011;44880;52.814;18.270;2023-08-06T05:45:50;7.70;;;3.30;;
59093;SDS011;44880;52.814;18.270;2023-08-06T05:48:22;7.30;;;3.40;;
59093;SDS011;44880;52.814;18.270;2023-08-06T05:50:53;8.60;;;3.50;;
59093;SDS011;44880;52.814;18.270;2023-08-06T05:53:28;8.10;;;3.30;;
59093;SDS011;44880;52.814;18.270;2023-08-06T05:56:00;8.00;;;3.60;;
59093;SDS011;44880;52.814;18.270;2023-08-06T06:01:02;8.20;;;3.50;;
59093;SDS011;44880;52.814;18.270;2023-08-06T06:06:07;8.60;;;3.90;;
59093;SDS011;44880;52.814;18.270;2023-08-06T06:08:38;7.90;;;4.00;;
59093;SDS011;44880;52.814;18.270;2023-08-06T06:11:10;7.70;;;3.50;;
59093;SDS011;44880;52.814;18.270;2023-08-06T06:13:45;9.60;;;3.60;;
59093;SDS011;44880;52.814;18.270;2023-08-06T06:16:17;8.40;;;3.30;;
59093;SDS011;44880;52.814;18.270;2023-08-06T06:21:18;9.60;;;3.90;;
59093;SDS011;44880;52.814;18.270;2023-08-06T06:26:59;7.30;;;3.40;;
59093;SDS011;44880;52.814;18.270;2023-08-06T06:29:31;7.10;;;3.40;;
59093;SDS011;44880;52.814;18.270;2023-08-06T06:32:07;8.30;;;3.60;;
59093;SDS011;44880;52.814;18.270;2023-08-06T06:34:38;7.60;;;3.40;;
59093;SDS011;44880;52.814;18.270;2023-08-06T06:37:10;8.70;;;3.50;;
59093;SDS011;44880;52.814;18.270;2023-08-06T06:39:44;8.00;;;3.40;;
59093;SDS011;44880;52.814;18.270;2023-08-06T06:42:16;9.70;;;3.70;;
59093;SDS011;44880;52.814;18.270;2023-08-06T06:44:48;7.50;;;3.30;;
59093;SDS011;44880;52.814;18.270;2023-08-06T06:47:20;8.70;;;4.00;;
59093;SDS011;44880;52.814;18.270;2023-08-06T06:50:00;8.50;;;3.70;;
59093;SDS011;44880;52.814;18.270;2023-08-06T06:55:02;8.50;;;3.50;;
59093;SDS011;44880;52.814;18.270;2023-08-06T06:57:38;8.80;;;3.60;;
59093;SDS011;44880;52.814;18.270;2023-08-06T07:00:11;7.90;;;3.60;;
59093;SDS011;44880;52.814;18.270;2023-08-06T07:02:44;8.10;;;3.70;;
59093;SDS011;44880;52.814;18.270;2023-08-06T07:05:16;8.00;;;3.90;;
59093;SDS011;44880;52.814;18.270;2023-08-06T07:07:51;8.00;;;3.40;;
59093;SDS011;44880;52.814;18.270;2023-08-06T07:10:23;7.20;;;3.50;;
59093;SDS011;44880;52.814;18.270;2023-08-06T07:15:25;8.50;;;3.60;;
59093;SDS011;44880;52.814;18.270;2023-08-06T07:17:57;7.60;;;3.50;;
59093;SDS011;44880;52.814;18.270;2023-08-06T07:20:29;7.70;;;3.50;;
59093;SDS011;44880;52.814;18.270;2023-08-06T07:23:02;8.70;;;3.70;;
59093;SDS011;44880;52.814;18.270;2023-08-06T07:25:34;7.20;;;3.50;;
59093;SDS011;44880;52.814;18.270;2023-08-06T07:28:22;8.50;;;3.30;;
59093;SDS011;44880;52.814;18.270;2023-08-06T07:31:05;7.20;;;3.20;;
59093;SDS011;44880;52.814;18.270;2023-08-06T07:36:24;6.90;;;2.90;;
59093;SDS011;44880;52.814;18.270;2023-08-06T07:38:56;8.10;;;3.50;;
59093;SDS011;44880;52.814;18.270;2023-08-06T07:41:37;7.30;;;3.10;;
59093;SDS011;44880;52.814;18.270;2023-08-06T07:44:14;6.70;;;3.10;;
59093;SDS011;44880;52.814;18.270;2023-08-06T07:46:46;7.90;;;3.60;;
59093;SDS011;44880;52.814;18.270;2023-08-06T07:49:17;7.50;;;3.60;;
59093;SDS011;44880;52.814;18.270;2023-08-06T07:52:03;7.80;;;3.40;;
59093;SDS011;44880;52.814;18.270;2023-08-06T07:54:36;7.50;;;3.40;;
59093;SDS011;44880;52.814;18.270;2023-08-06T07:57:08;8.40;;;3.30;;
59093;SDS011;44880;52.814;18.270;2023-08-06T07:59:42;8.00;;;3.30;;
59093;SDS011;44880;52.814;18.270;2023-08-06T08:04:44;7.50;;;3.30;;
59093;SDS011;44880;52.814;18.270;2023-08-06T08:07:17;7.70;;;3.50;;
59093;SDS011;44880;52.814;18.270;2023-08-06T08:09:50;8.10;;;3.80;;
59093;SDS011;44880;52.814;18.270;2023-08-06T08:12:21;8.90;;;3.70;;
59093;SDS011;44880;52.814;18.270;2023-08-06T08:14:54;8.30;;;3.90;;
59093;SDS011;44880;52.814;18.270;2023-08-06T08:17:25;7.80;;;3.90;;
59093;SDS011;44880;52.814;18.270;2023-08-06T08:20:25;7.50;;;3.90;;
59093;SDS011;44880;52.814;18.270;2023-08-06T08:23:00;7.90;;;3.30;;
59093;SDS011;44880;52.814;18.270;2023-08-06T08:25:35;8.90;;;3.70;;
59093;SDS011;44880;52.814;18.270;2023-08-06T08:28:08;8.60;;;4.30;;
59093;SDS011;44880;52.814;18.270;2023-08-06T08:30:40;8.00;;;4.10;;
59093;SDS011;44880;52.814;18.270;2023-08-06T08:33:12;8.70;;;4.50;;
59093;SDS011;44880;52.814;18.270;2023-08-06T08:35:52;10.30;;;4.40;;
59093;SDS011;44880;52.814;18.270;2023-08-06T08:38:24;9.00;;;4.30;;
59093;SDS011;44880;52.814;18.270;2023-08-06T08:40:56;10.40;;;4.50;;
59093;SDS011;44880;52.814;18.270;2023-08-06T08:46:07;9.20;;;4.30;;
59093;SDS011;44880;52.814;18.270;2023-08-06T08:48:41;8.40;;;4.50;;
59093;SDS011;44880;52.814;18.270;2023-08-06T08:51:14;9.20;;;4.80;;
59093;SDS011;44880;52.814;18.270;2023-08-06T08:54:05;9.30;;;4.80;;
59093;SDS011;44880;52.814;18.270;2023-08-06T08:56:38;9.80;;;4.70;;
59093;SDS011;44880;52.814;18.270;2023-08-06T08:59:19;8.80;;;4.60;;
59093;SDS011;44880;52.814;18.270;2023-08-06T09:01:51;9.10;;;4.90;;
59093;SDS011;44880;52.814;18.270;2023-08-06T09:04:23;9.50;;;4.90;;
59093;SDS011;44880;52.814;18.270;2023-08-06T09:06:55;9.10;;;4.70;;
59093;SDS011;44880;52.814;18.270;2023-08-06T09:09:30;10.10;;;5.50;;
59093;SDS011;44880;52.814;18.270;2023-08-06T09:12:11;9.40;;;5.10;;
59093;SDS011;44880;52.814;18.270;2023-08-06T09:14:44;8.70;;;4.80;;
59093;SDS011;44880;52.814;18.270;2023-08-06T09:17:16;9.20;;;5.10;;
59093;SDS011;44880;52.814;18.270;2023-08-06T09:19:53;9.80;;;4.70;;
59093;SDS011;44880;52.814;18.270;2023-08-06T09:22:24;8.70;;;4.70;;
59093;SDS011;44880;52.814;18.270;2023-08-06T09:24:56;8.80;;;4.80;;
59093;SDS011;44880;52.814;18.270;2023-08-06T09:27:32;9.90;;;5.00;;
59093;SDS011;44880;52.814;18.270;2023-08-06T09:30:04;10.70;;;4.90;;
59093;SDS011;44880;52.814;18.270;2023-08-06T09:32:45;9.00;;;4.80;;
59093;SDS011;44880;52.814;18.270;2023-08-06T09:35:27;10.60;;;5.00;;
59093;SDS011;44880;52.814;18.270;2023-08-06T09:38:08;9.10;;;4.50;;
59093;SDS011;44880;52.814;18.270;2023-08-06T09:40:40;8.90;;;4.70;;
59093;SDS011;44880;52.814;18.270;2023-08-06T09:43:18;8.90;;;4.60;;
59093;SDS011;44880;52.814;18.270;2023-08-06T09:45:51;8.90;;;5.10;;
59093;SDS011;44880;52.814;18.270;2023-08-06T09:48:22;8.40;;;4.80;;
59093;SDS011;44880;52.814;18.270;2023-08-06T09:50:55;8.80;;;5.10;;
59093;SDS011;44880;52.814;18.270;2023-08-06T09:53:44;8.20;;;4.40;;
59093;SDS011;44880;52.814;18.270;2023-08-06T09:56:17;10.60;;;4.60;;
59093;SDS011;44880;52.814;18.270;2023-08-06T10:01:33;7.90;;;3.90;;
59093;SDS011;44880;52.814;18.270;2023-08-06T10:04:06;7.70;;;3.50;;
59093;SDS011;44880;52.814;18.270;2023-08-06T10:06:39;7.30;;;3.50;;
59093;SDS011;44880;52.814;18.270;2023-08-06T10:09:22;8.30;;;3.70;;
59093;SDS011;44880;52.814;18.270;2023-08-06T10:11:55;9.50;;;3.60;;
59093;SDS011;44880;52.814;18.270;2023-08-06T10:14:28;7.50;;;3.40;;
59093;SDS011;44880;52.814;18.270;2023-08-06T10:17:02;8.70;;;3.50;;
59093;SDS011;44880;52.814;18.270;2023-08-06T10:19:38;8.00;;;3.50;;
59093;SDS011;44880;52.814;18.270;2023-08-06T10:22:10;8.20;;;3.60;;
59093;SDS011;44880;52.814;18.270;2023-08-06T10:24:49;7.20;;;3.50;;
59093;SDS011;44880;52.814;18.270;2023-08-06T10:27:31;7.60;;;3.60;;
59093;SDS011;44880;52.814;18.270;2023-08-06T10:30:33;8.80;;;3.30;;
59093;SDS011;44880;52.814;18.270;2023-08-06T10:33:06;8.60;;;3.30;;
59093;SDS011;44880;52.814;18.270;2023-08-06T10:35:40;7.80;;;3.30;;
59093;SDS011;44880;52.814;18.270;2023-08-06T10:38:14;7.20;;;3.50;;
59093;SDS011;44880;52.814;18.270;2023-08-06T10:41:03;7.40;;;3.60;;
59093;SDS011;44880;52.814;18.270;2023-08-06T10:43:51;7.40;;;3.60;;
59093;SDS011;44880;52.814;18.270;2023-08-06T10:46:30;7.10;;;3.50;;
59093;SDS011;44880;52.814;18.270;2023-08-06T10:49:02;8.70;;;3.60;;
59093;SDS011;44880;52.814;18.270;2023-08-06T10:51:35;7.90;;;3.20;;
59093;SDS011;44880;52.814;18.270;2023-08-06T10:54:10;6.50;;;3.00;;
59093;SDS011;44880;52.814;18.270;2023-08-06T10:56:42;7.70;;;3.30;;
59093;SDS011;44880;52.814;18.270;2023-08-06T10:59:16;7.20;;;3.10;;
59093;SDS011;44880;52.814;18.270;2023-08-06T11:04:21;7.40;;;3.40;;
59093;SDS011;44880;52.814;18.270;2023-08-06T11:06:56;8.00;;;3.60;;
59093;SDS011;44880;52.814;18.270;2023-08-06T11:09:27;7.60;;;3.50;;
59093;SDS011;44880;52.814;18.270;2023-08-06T11:11:59;7.90;;;3.70;;
59093;SDS011;44880;52.814;18.270;2023-08-06T11:14:32;8.60;;;4.00;;
59093;SDS011;44880;52.814;18.270;2023-08-06T11:17:04;7.30;;;3.80;;
59093;SDS011;44880;52.814;18.270;2023-08-06T11:19:36;7.70;;;3.50;;
59093;SDS011;44880;52.814;18.270;2023-08-06T11:22:09;7.90;;;3.90;;
59093;SDS011;44880;52.814;18.270;2023-08-06T11:24:41;8.70;;;4.10;;
59093;SDS011;44880;52.814;18.270;2023-08-06T11:29:43;8.40;;;4.10;;
59093;SDS011;44880;52.814;18.270;2023-08-06T11:32:16;9.10;;;4.80;;
59093;SDS011;44880;52.814;18.270;2023-08-06T11:34:56;9.70;;;5.20;;
59093;SDS011;44880;52.814;18.270;2023-08-06T11:39:58;9.70;;;5.10;;
59093;SDS011;44880;52.814;18.270;2023-08-06T11:45:04;12.00;;;6.80;;
59093;SDS011;44880;52.814;18.270;2023-08-06T11:47:39;12.50;;;7.10;;
59093;SDS011;44880;52.814;18.270;2023-08-06T11:50:11;12.30;;;7.60;;
59093;SDS011;44880;52.814;18.270;2023-08-06T11:53:03;12.70;;;8.30;;
59093;SDS011;44880;52.814;18.270;2023-08-06T11:55:36;14.80;;;9.40;;
59093;SDS011;44880;52.814;18.270;2023-08-06T11:58:08;17.10;;;10.00;;
59093;SDS011;44880;52.814;18.270;2023-08-06T12:00:41;15.10;;;9.50;;
59093;SDS011;44880;52.814;18.270;2023-08-06T12:03:13;13.90;;;9.70;;
59093;SDS011;44880;52.814;18.270;2023-08-06T12:05:45;14.50;;;9.10;;
59093;SDS011;44880;52.814;18.270;2023-08-06T12:10:48;16.60;;;10.70;;
59093;SDS011;44880;52.814;18.270;2023-08-06T12:13:22;16.50;;;10.80;;
59093;SDS011;44880;52.814;18.270;2023-08-06T12:15:54;15.60;;;10.20;;
59093;SDS011;44880;52.814;18.270;2023-08-06T12:18:25;16.90;;;10.40;;
59093;SDS011;44880;52.814;18.270;2023-08-06T12:23:27;16.80;;;11.10;;
59093;SDS011;44880;52.814;18.270;2023-08-06T12:26:01;17.00;;;11.70;;
59093;SDS011;44880;52.814;18.270;2023-08-06T12:31:06;17.30;;;11.90;;
59093;SDS011;44880;52.814;18.270;2023-08-06T12:33:38;18.40;;;12.10;;
59093;SDS011;44880;52.814;18.270;2023-08-06T12:38:40;17.90;;;12.60;;
59093;SDS011;44880;52.814;18.270;2023-08-06T12:41:16;16.30;;;11.70;;
59093;SDS011;44880;52.814;18.270;2023-08-06T12:43:49;18.70;;;12.70;;
59093;SDS011;44880;52.814;18.270;2023-08-06T12:46:23;18.40;;;12.90;;
59093;SDS011;44880;52.814;18.270;2023-08-06T12:48:55;17.20;;;13.10;;
59093;SDS011;44880;52.814;18.270;2023-08-06T12:52:11;18.20;;;13.00;;
59093;SDS011;44880;52.814;18.270;2023-08-06T12:54:49;17.00;;;12.60;;
59093;SDS011;44880;52.814;18.270;2023-08-06T12:57:21;17.60;;;12.60;;
59093;SDS011;44880;52.814;18.270;2023-08-06T12:59:53;16.80;;;12.70;;
59093;SDS011;44880;52.814;18.270;2023-08-06T13:05:19;19.70;;;13.20;;
59093;SDS011;44880;52.814;18.270;2023-08-06T13:07:53;17.80;;;12.50;;
59093;SDS011;44880;52.814;18.270;2023-08-06T13:10:31;17.40;;;12.90;;
59093;SDS011;44880;52.814;18.270;2023-08-06T13:13:05;17.00;;;13.20;;
59093;SDS011;44880;52.814;18.270;2023-08-06T13:15:41;18.20;;;14.20;;
59093;SDS011;44880;52.814;18.270;2023-08-06T13:18:19;21.30;;;14.40;;
59093;SDS011;44880;52.814;18.270;2023-08-06T13:20:56;19.70;;;14.60;;
59093;SDS011;44880;52.814;18.270;2023-08-06T13:23:32;19.20;;;13.80;;
59093;SDS011;44880;52.814;18.270;2023-08-06T13:26:06;18.50;;;13.70;;
59093;SDS011;44880;52.814;18.270;2023-08-06T13:28:56;18.40;;;14.50;;
59093;SDS011;44880;52.814;18.270;2023-08-06T13:31:28;24.30;;;16.10;;
59093;SDS011;44880;52.814;18.270;2023-08-06T13:34:08;16.00;;;10.60;;
59093;SDS011;44880;52.814;18.270;2023-08-06T13:36:46;10.20;;;3.90;;
59093;SDS011;44880;52.814;18.270;2023-08-06T13:39:20;6.40;;;1.90;;
59093;SDS011;44880;52.814;18.270;2023-08-06T13:44:40;3.30;;;0.70;;
59093;SDS011;44880;52.814;18.270;2023-08-06T13:47:14;3.10;;;0.70;;
59093;SDS011;44880;52.814;18.270;2023-08-06T13:52:44;2.00;;;0.70;;
59093;SDS011;44880;52.814;18.270;2023-08-06T13:55:18;3.70;;;0.80;;
59093;SDS011;44880;52.814;18.270;2023-08-06T13:57:56;2.00;;;0.80;;
59093;SDS011;44880;52.814;18.270;2023-08-06T14:00:29;2.30;;;0.80;;
59093;SDS011;44880;52.814;18.270;2023-08-06T14:03:03;4.40;;;0.70;;
59093;SDS011;44880;52.814;18.270;2023-08-06T14:05:38;1.20;;;0.60;;
59093;SDS011;44880;52.814;18.270;2023-08-06T14:08:15;2.30;;;0.60;;
59093;SDS011;44880;52.814;18.270;2023-08-06T14:10:51;2.30;;;0.70;;
59093;SDS011;44880;52.814;18.270;2023-08-06T14:13:28;2.50;;;0.70;;
59093;SDS011;44880;52.814;18.270;2023-08-06T14:16:10;2.70;;;0.60;;
59093;SDS011;44880;52.814;18.270;2023-08-06T14:18:44;2.30;;;0.60;;
59093;SDS011;44880;52.814;18.270;2023-08-06T14:21:20;1.70;;;0.60;;
59093;SDS011;44880;52.814;18.270;2023-08-06T14:23:59;1.80;;;0.80;;
59093;SDS011;44880;52.814;18.270;2023-08-06T14:26:34;0.90;;;0.60;;
59093;SDS011;44880;52.814;18.270;2023-08-06T14:29:09;3.00;;;0.70;;
59093;SDS011;44880;52.814;18.270;2023-08-06T14:31:55;1.50;;;0.70;;
59093;SDS011;44880;52.814;18.270;2023-08-06T14:34:28;2.20;;;0.90;;
59093;SDS011;44880;52.814;18.270;2023-08-06T14:37:03;2.40;;;0.70;;
59093;SDS011;44880;52.814;18.270;2023-08-06T14:39:49;1.80;;;0.70;;
59093;SDS011;44880;52.814;18.270;2023-08-06T14:42:23;2.10;;;0.70;;
59093;SDS011;44880;52.814;18.270;2023-08-06T14:47:39;2.50;;;0.80;;
59093;SDS011;44880;52.814;18.270;2023-08-06T14:50:13;2.30;;;0.80;;
59093;SDS011;44880;52.814;18.270;2023-08-06T14:52:45;2.60;;;0.80;;
59093;SDS011;44880;52.814;18.270;2023-08-06T14:55:24;3.30;;;1.00;;
59093;SDS011;44880;52.814;18.270;2023-08-06T14:57:58;6.90;;;1.90;;
59093;SDS011;44880;52.814;18.270;2023-08-06T15:00:32;5.80;;;1.60;;
59093;SDS011;44880;52.814;18.270;2023-08-06T15:03:07;6.20;;;1.90;;
59093;SDS011;44880;52.814;18.270;2023-08-06T15:05:46;7.90;;;2.80;;
59093;SDS011;44880;52.814;18.270;2023-08-06T15:08:21;9.10;;;3.00;;
59093;SDS011;44880;52.814;18.270;2023-08-06T15:11:06;10.90;;;3.70;;
59093;SDS011;44880;52.814;18.270;2023-08-06T15:13:46;11.90;;;4.60;;
59093;SDS011;44880;52.814;18.270;2023-08-06T15:16:19;12.10;;;4.80;;
59093;SDS011;44880;52.814;18.270;2023-08-06T15:21:51;11.20;;;4.00;;
59093;SDS011;44880;52.814;18.270;2023-08-06T15:27:25;7.80;;;2.40;;
59093;SDS011;44880;52.814;18.270;2023-08-06T15:30:09;7.30;;;2.00;;
59093;SDS011;44880;52.814;18.270;2023-08-06T15:32:52;7.50;;;2.20;;
59093;SDS011;44880;52.814;18.270;2023-08-06T15:35:33;6.70;;;2.00;;
59093;SDS011;44880;52.814;18.270;2023-08-06T15:38:10;9.10;;;3.30;;
59093;SDS011;44880;52.814;18.270;2023-08-06T15:40:44;9.50;;;3.70;;
59093;SDS011;44880;52.814;18.270;2023-08-06T15:43:19;10.90;;;3.60;;
59093;SDS011;44880;52.814;18.270;2023-08-06T15:46:04;9.40;;;3.10;;
59093;SDS011;44880;52.814;18.270;2023-08-06T15:48:44;7.30;;;2.80;;
59093;SDS011;44880;52.814;18.270;2023-08-06T15:51:19;7.90;;;1.90;;
59093;SDS011;44880;52.814;18.270;2023-08-06T15:54:00;5.90;;;1.70;;
59093;SDS011;44880;52.814;18.270;2023-08-06T15:56:34;6.50;;;2.30;;
59093;SDS011;44880;52.814;18.270;2023-08-06T16:02:06;6.10;;;1.70;;
59093;SDS011;44880;52.814;18.270;2023-08-06T16:04:38;7.10;;;2.40;;
59093;SDS011;44880;52.814;18.270;2023-08-06T16:07:15;7.80;;;3.40;;
59093;SDS011;44880;52.814;18.270;2023-08-06T16:10:02;6.70;;;2.60;;
59093;SDS011;44880;52.814;18.270;2023-08-06T16:12:37;6.10;;;2.30;;
59093;SDS011;44880;52.814;18.270;2023-08-06T16:18:07;8.30;;;3.10;;
59093;SDS011;44880;52.814;18.270;2023-08-06T16:23:50;9.00;;;4.00;;
59093;SDS011;44880;52.814;18.270;2023-08-06T16:26:32;9.30;;;4.50;;
59093;SDS011;44880;52.814;18.270;2023-08-06T16:29:07;8.30;;;3.70;;
59093;SDS011;44880;52.814;18.270;2023-08-06T16:31:41;8.80;;;2.90;;
59093;SDS011;44880;52.814;18.270;2023-08-06T16:37:05;6.40;;;1.90;;
59093;SDS011;44880;52.814;18.270;2023-08-06T16:39:39;7.00;;;2.00;;
59093;SDS011;44880;52.814;18.270;2023-08-06T16:42:23;6.90;;;1.90;;
59093;SDS011;44880;52.814;18.270;2023-08-06T16:44:58;6.10;;;1.70;;
59093;SDS011;44880;52.814;18.270;2023-08-06T16:47:31;8.30;;;2.50;;
59093;SDS011;44880;52.814;18.270;2023-08-06T16:52:56;8.00;;;2.80;;
59093;SDS011;44880;52.814;18.270;2023-08-06T16:55:31;8.00;;;2.80;;